createdAt,value
2017-09-16T00:00:20.303Z,41.95
2017-09-16T00:02:51.505Z,42.36
2017-09-16T00:05:22.487Z,42.14
2017-09-16T00:07:54.130Z,42.14
2017-09-16T00:10:25.605Z,41.76
2017-09-16T00:12:56.720Z,41.67
2017-09-16T00:15:27.747Z,41.62
2017-09-16T00:17:59.096Z,41.73
2017-09-16T00:20:35.831Z,43.22
2017-09-16T00:23:07.610Z,43.17
2017-09-16T00:25:41.767Z,43.08
2017-09-16T00:28:12.713Z,43.59
2017-09-16T00:30:44.273Z,42.69
2017-09-16T00:33:15.320Z,43.05
2017-09-16T00:35:46.456Z,43.19
2017-09-16T00:38:17.766Z,43.10
2017-09-16T00:40:48.782Z,43.69
2017-09-16T00:43:20.207Z,43.80
2017-09-16T00:45:51.717Z,43.51
2017-09-16T00:48:22.709Z,43.10
2017-09-16T00:50:53.774Z,42.77
2017-09-16T00:53:25.656Z,42.59
2017-09-16T00:55:56.513Z,42.42
2017-09-16T00:58:27.897Z,42.36
2017-09-16T01:00:58.856Z,42.34
2017-09-16T01:03:30.678Z,42.23
2017-09-16T01:06:02.018Z,42.33
2017-09-16T01:08:33.012Z,42.66
2017-09-16T01:11:05.190Z,43.23
2017-09-16T01:13:36.200Z,43.05
2017-09-16T01:16:07.265Z,42.73
2017-09-16T01:18:38.554Z,42.90
2017-09-16T01:21:09.533Z,42.98
2017-09-16T01:23:42.397Z,42.59
2017-09-16T01:26:14.084Z,42.95
2017-09-16T01:28:46.678Z,42.82
2017-09-16T01:31:17.819Z,42.80
2017-09-16T01:33:51.238Z,42.93
2017-09-16T01:36:22.730Z,42.65
2017-09-16T01:38:53.996Z,42.89
2017-09-16T01:41:25.093Z,42.86
2017-09-16T01:43:55.881Z,42.99
2017-09-16T01:46:27.266Z,42.88
2017-09-16T01:48:58.206Z,43.25
2017-09-16T01:51:29.025Z,43.39
2017-09-16T01:54:00.031Z,43.46
2017-09-16T01:56:30.901Z,43.60
2017-09-16T01:59:02.396Z,43.52
2017-09-16T02:01:33.250Z,43.44
2017-09-16T02:04:05.076Z,43.69
2017-09-16T02:06:36.951Z,43.53
2017-09-16T02:09:08.339Z,43.65
2017-09-16T02:11:39.672Z,43.25
2017-09-16T02:14:12.758Z,43.49
2017-09-16T02:16:47.519Z,43.55
2017-09-16T02:19:18.596Z,43.41
2017-09-16T02:21:58.975Z,43.43
2017-09-16T02:30:25.375Z,43.37
2017-09-16T02:32:59.393Z,43.15
2017-09-16T02:35:34.732Z,43.26
2017-09-16T02:38:28.815Z,43.27
2017-09-16T02:46:10.172Z,43.09
2017-09-16T02:51:25.849Z,43.30
2017-09-16T02:56:14.648Z,43.13
2017-09-16T02:58:52.751Z,43.16
2017-09-16T03:01:28.506Z,43.33
2017-09-16T03:04:06.325Z,43.39
2017-09-16T03:07:00.090Z,43.19
2017-09-16T03:10:23.255Z,43.35
2017-09-16T03:12:57.681Z,42.92
2017-09-16T03:15:34.980Z,42.87
2017-09-16T03:18:09.597Z,43.08
2017-09-16T03:20:56.729Z,42.80
2017-09-16T03:23:30.031Z,42.52
2017-09-16T03:26:20.837Z,42.35
2017-09-16T03:29:05.090Z,41.88
2017-09-16T03:31:50.364Z,41.96
2017-09-16T03:34:41.786Z,41.90
2017-09-16T03:37:25.437Z,41.82
2017-09-16T03:39:59.050Z,41.86
2017-09-16T03:42:47.699Z,41.56
2017-09-16T03:45:22.043Z,41.59
2017-09-16T03:47:55.427Z,41.61
2017-09-16T03:50:26.794Z,41.47
2017-09-16T03:53:00.487Z,41.22
2017-09-16T03:55:42.813Z,41.54
2017-09-16T03:58:19.989Z,41.41
2017-09-16T04:01:14.236Z,41.54
2017-09-16T04:03:49.515Z,41.42
2017-09-16T04:06:20.803Z,41.66
2017-09-16T04:09:06.345Z,41.45
2017-09-16T04:16:05.189Z,41.63
2017-09-16T04:22:01.148Z,41.66
2017-09-16T04:24:35.675Z,41.69
2017-09-16T04:27:09.379Z,41.99
2017-09-16T04:29:50.356Z,41.82
2017-09-16T04:32:27.457Z,41.64
2017-09-16T04:35:00.847Z,41.42
2017-09-16T04:37:34.362Z,41.32
2017-09-16T04:40:08.194Z,41.44
2017-09-16T04:42:46.527Z,41.39
2017-09-16T04:45:31.957Z,41.40
2017-09-16T04:48:08.254Z,41.34
2017-09-16T04:50:42.971Z,41.54
2017-09-16T04:53:27.424Z,41.42
2017-09-16T04:56:24.580Z,41.43
2017-09-16T04:59:10.272Z,41.59
2017-09-16T05:01:52.471Z,41.82
2017-09-16T05:04:31.511Z,41.73
2017-09-16T05:07:09.825Z,41.91
2017-09-16T05:09:47.760Z,41.59
2017-09-16T05:12:21.560Z,41.74
2017-09-16T05:14:54.754Z,41.74
2017-09-16T05:17:40.337Z,41.85
2017-09-16T05:23:01.888Z,41.83
2017-09-16T05:25:38.401Z,42.18
2017-09-16T05:41:43.626Z,41.89
2017-09-16T05:44:18.333Z,43.17
2017-09-16T05:46:57.372Z,42.94
2017-09-16T05:49:34.042Z,43.12
2017-09-16T05:52:11.954Z,43.42
2017-09-16T05:54:48.152Z,43.63
2017-09-16T05:57:26.491Z,43.10
2017-09-16T06:00:03.218Z,43.39
2017-09-16T06:02:52.693Z,43.27
2017-09-16T06:05:27.030Z,43.07
2017-09-16T06:08:00.235Z,42.77
2017-09-16T06:10:36.893Z,42.82
2017-09-16T06:13:14.619Z,42.79
2017-09-16T06:15:51.480Z,43.18
2017-09-16T06:18:28.530Z,42.88
2017-09-16T06:21:02.785Z,43.44
2017-09-16T06:26:36.202Z,43.00
2017-09-16T06:29:11.154Z,43.04
2017-09-16T06:31:51.101Z,42.85
2017-09-16T06:34:31.365Z,43.10
2017-09-16T06:39:54.538Z,43.07
2017-09-16T06:42:28.887Z,43.17
2017-09-16T06:45:06.199Z,42.97
2017-09-16T06:47:45.905Z,43.02
2017-09-16T06:50:19.004Z,43.16
2017-09-16T06:52:55.901Z,43.05
2017-09-16T06:55:32.760Z,43.24
2017-09-16T06:58:09.342Z,43.26
2017-09-16T07:00:50.234Z,43.16
2017-09-16T07:03:24.850Z,43.25
2017-09-16T07:06:00.514Z,43.17
2017-09-16T07:11:31.783Z,43.33
2017-09-16T07:17:15.779Z,43.00
2017-09-16T07:19:51.725Z,42.98
2017-09-16T07:22:39.987Z,43.10
2017-09-16T07:25:23.538Z,42.88
2017-09-16T07:28:05.029Z,42.99
2017-09-16T07:33:36.310Z,43.27
2017-09-16T07:36:11.470Z,43.18
2017-09-16T07:38:47.960Z,44.15
2017-09-16T07:41:23.662Z,45.63
2017-09-16T07:43:56.945Z,46.92
2017-09-16T07:46:32.931Z,47.26
2017-09-16T07:49:10.853Z,47.22
2017-09-16T07:51:44.329Z,47.19
2017-09-16T07:54:40.074Z,47.32
2017-09-16T07:57:23.264Z,47.58
2017-09-16T07:59:59.035Z,47.90
2017-09-16T08:02:38.812Z,48.11
2017-09-16T08:05:14.498Z,48.52
2017-09-16T08:08:01.747Z,48.35
2017-09-16T08:10:36.934Z,49.08
2017-09-16T08:13:39.221Z,48.90
2017-09-16T08:16:24.161Z,50.33
2017-09-16T08:19:16.539Z,49.96
2017-09-16T08:21:52.986Z,47.62
2017-09-16T08:24:33.047Z,46.36
2017-09-16T08:27:09.344Z,45.25
2017-09-16T08:29:48.650Z,44.62
2017-09-16T08:32:27.282Z,44.00
2017-09-16T08:35:05.860Z,44.10
2017-09-16T08:37:37.688Z,43.96
2017-09-16T08:40:17.816Z,43.50
2017-09-16T08:42:55.736Z,43.71
2017-09-16T08:45:32.914Z,42.83
2017-09-16T08:48:08.201Z,42.75
2017-09-16T08:50:51.617Z,42.67
2017-09-16T08:53:30.826Z,42.61
2017-09-16T08:56:05.063Z,42.53
2017-09-16T08:58:42.555Z,42.33
2017-09-16T09:01:17.491Z,42.47
2017-09-16T09:03:59.799Z,42.40
2017-09-16T09:09:32.091Z,42.22
2017-09-16T09:12:09.302Z,41.99
2017-09-16T09:14:48.921Z,42.06
2017-09-16T09:17:24.380Z,41.57
2017-09-16T09:20:04.846Z,41.81
2017-09-16T09:22:48.147Z,41.69
2017-09-16T09:25:22.340Z,41.72
2017-09-16T09:28:04.818Z,41.88
2017-09-16T09:30:36.785Z,42.06
2017-09-16T09:33:18.187Z,41.72
2017-09-16T09:35:57.104Z,41.67
2017-09-16T09:38:46.549Z,41.72
2017-09-16T09:41:22.236Z,41.96
2017-09-16T09:43:57.317Z,41.54
2017-09-16T09:46:32.016Z,41.57
